Time;durP1;ratioP1;P1;durP2;ratioP2;P2;SDS_P1;SDS_P2;PMS_P1;PMS_P2;Temp;Humidity;BMP_temperature;BMP_pressure;BME280_temperature;BME280_humidity;BME280_pressure;Samples;Min_cycle;Max_cycle;Signal;HPM_P1;HPM_P2
2022/07/18 00:00:07;;;;;;;3.45;1.73;;;23.70;99.40;;;;;;5070763;28;20371;-68
2022/07/18 00:02:34;;;;;;;3.97;1.70;;;23.70;99.60;;;;;;5054801;28;20178;-70
2022/07/18 00:05:00;;;;;;;3.17;1.60;;;23.70;99.60;;;;;;5080060;28;20186;-70
2022/07/18 00:07:27;;;;;;;1.73;1.50;;;23.70;99.70;;;;;;5088472;28;20367;-68
2022/07/18 00:09:53;;;;;;;3.33;1.70;;;23.70;99.70;;;;;;5087784;28;20184;-68
2022/07/18 00:12:19;;;;;;;4.23;1.67;;;23.60;99.60;;;;;;5089318;28;20199;-68
2022/07/18 00:14:46;;;;;;;4.67;1.50;;;23.60;99.70;;;;;;5083842;28;20232;-70
2022/07/18 00:17:12;;;;;;;2.45;1.60;;;23.60;99.90;;;;;;5076028;28;20232;-70
2022/07/18 00:19:39;;;;;;;6.10;1.73;;;23.60;99.90;;;;;;5088357;28;20646;-68
2022/07/18 00:22:06;;;;;;;1.83;1.45;;;23.60;99.90;;;;;;5089542;28;20656;-68
2022/07/18 00:24:33;;;;;;;6.33;1.50;;;23.60;99.90;;;;;;5086543;28;20190;-69
2022/07/18 00:27:01;;;;;;;3.05;1.50;;;23.60;99.90;;;;;;5086612;28;20292;-70
2022/07/18 00:29:28;;;;;;;2.93;1.60;;;23.60;99.90;;;;;;5050885;28;20644;-69
2022/07/18 00:31:54;;;;;;;2.28;1.45;;;23.70;99.90;;;;;;5079250;28;20281;-68
2022/07/18 00:34:21;;;;;;;2.87;1.57;;;23.70;99.90;;;;;;5087284;28;20235;-69
2022/07/18 00:36:48;;;;;;;3.27;1.60;;;23.70;99.90;;;;;;5078808;28;20670;-68
2022/07/18 00:39:15;;;;;;;5.60;2.17;;;23.70;99.90;;;;;;5073604;28;20542;-68
2022/07/18 00:41:49;;;;;;;2.87;1.70;;;23.70;99.90;;;;;;5088843;28;20190;-70
2022/07/18 00:44:26;;;;;;;5.97;1.77;;;23.70;99.90;;;;;;5077213;28;20221;-69
2022/07/18 00:46:56;;;;;;;4.00;1.60;;;23.70;99.90;;;;;;5068631;28;20320;-68
2022/07/18 00:49:22;;;;;;;4.00;1.63;;;23.80;99.90;;;;;;5082190;28;20218;-69
2022/07/18 00:51:49;;;;;;;3.22;2.00;;;23.80;99.90;;;;;;5072036;28;20208;-68
2022/07/18 00:54:16;;;;;;;5.32;1.73;;;23.70;99.90;;;;;;5087046;28;20194;-69
2022/07/18 00:56:44;;;;;;;3.67;1.50;;;23.70;99.90;;;;;;5067528;28;20547;-67
2022/07/18 00:59:11;;;;;;;2.08;1.60;;;23.60;99.90;;;;;;5049876;28;20193;-67
2022/07/18 01:01:42;;;;;;;3.45;1.40;;;23.60;99.90;;;;;;5089236;28;20204;-68
2022/07/18 01:04:16;;;;;;;5.13;2.00;;;23.60;99.90;;;;;;5086642;28;20200;-68
2022/07/18 01:06:42;;;;;;;6.13;1.70;;;23.50;99.90;;;;;;5082195;28;20227;-70
2022/07/18 01:09:09;;;;;;;3.37;1.50;;;23.50;99.90;;;;;;5087570;28;20243;-67
2022/07/18 01:11:36;;;;;;;3.50;1.80;;;23.50;99.90;;;;;;5072324;28;20186;-67
2022/07/18 01:14:05;;;;;;;3.73;1.80;;;23.50;99.90;;;;;;5083231;28;20297;-67
2022/07/18 01:16:32;;;;;;;3.87;1.83;;;23.40;99.90;;;;;;5066814;28;20210;-69
2022/07/18 01:18:59;;;;;;;3.90;1.60;;;23.40;99.90;;;;;;5049730;28;20185;-68
2022/07/18 01:21:26;;;;;;;2.90;1.50;;;23.40;99.90;;;;;;5057258;28;20826;-68
2022/07/18 01:23:52;;;;;;;5.63;1.70;;;23.40;99.90;;;;;;5070449;28;20225;-68
2022/07/18 01:26:19;;;;;;;2.27;1.57;;;23.40;99.90;;;;;;5085425;28;20246;-70
2022/07/18 01:28:46;;;;;;;2.85;1.70;;;23.40;99.90;;;;;;5073370;28;20208;-68
2022/07/18 01:31:13;;;;;;;3.08;1.60;;;23.40;99.90;;;;;;5092568;28;20684;-68
2022/07/18 01:33:40;;;;;;;4.68;1.65;;;23.30;99.90;;;;;;5088322;28;20545;-67
2022/07/18 01:36:08;;;;;;;6.77;1.50;;;23.30;99.90;;;;;;5086893;28;20197;-69
2022/07/18 01:38:36;;;;;;;3.30;1.70;;;23.30;99.90;;;;;;5074021;28;20178;-69
2022/07/18 01:41:03;;;;;;;4.80;1.80;;;23.30;99.90;;;;;;5092489;28;20178;-67
2022/07/18 01:43:30;;;;;;;4.63;1.73;;;23.20;99.90;;;;;;5087064;28;20189;-68
2022/07/18 01:45:56;;;;;;;3.63;1.70;;;23.20;99.90;;;;;;5067802;28;20215;-65
2022/07/18 01:48:23;;;;;;;4.67;1.73;;;23.20;99.90;;;;;;5086041;28;20221;-69
2022/07/18 01:50:51;;;;;;;3.43;1.70;;;23.20;99.90;;;;;;5072564;28;20208;-68
2022/07/18 01:53:17;;;;;;;5.60;1.77;;;23.20;99.90;;;;;;5078183;28;20179;-71
2022/07/18 01:55:44;;;;;;;2.87;1.60;;;23.20;99.90;;;;;;5076307;28;20251;-68
2022/07/18 01:58:10;;;;;;;3.30;1.83;;;23.20;99.90;;;;;;5091348;28;20178;-69
2022/07/18 02:00:36;;;;;;;6.07;1.73;;;23.20;99.90;;;;;;5075385;28;20580;-68
2022/07/18 02:03:03;;;;;;;5.93;1.70;;;23.20;99.70;;;;;;5090048;28;20265;-67
2022/07/18 02:05:33;;;;;;;5.97;1.70;;;23.20;99.10;;;;;;5078259;28;20186;-67
2022/07/18 02:07:59;;;;;;;2.57;1.60;;;23.10;98.80;;;;;;5078218;28;20175;-71
2022/07/18 02:10:26;;;;;;;3.90;1.90;;;23.00;98.80;;;;;;5065770;28;20320;-65
2022/07/18 02:12:52;;;;;;;5.17;2.00;;;23.00;98.60;;;;;;5088964;28;21021;-69
2022/07/18 02:15:18;;;;;;;3.00;1.70;;;23.00;98.60;;;;;;5064425;28;20186;-67
2022/07/18 02:17:45;;;;;;;3.90;1.50;;;23.00;98.30;;;;;;5094844;28;20667;-67
2022/07/18 02:20:14;;;;;;;4.40;1.40;;;23.00;98.40;;;;;;5090967;28;20251;-69
2022/07/18 02:22:41;;;;;;;2.27;1.60;;;22.90;98.50;;;;;;5056178;28;20193;-70
2022/07/18 02:25:08;;;;;;;10.50;2.03;;;22.90;98.30;;;;;;5089120;28;20268;-67
2022/07/18 02:27:34;;;;;;;4.40;1.77;;;23.00;98.40;;;;;;5087860;28;20214;-67
2022/07/18 02:30:00;;;;;;;4.13;1.63;;;23.00;98.30;;;;;;5089382;28;20209;-69
2022/07/18 02:32:27;;;;;;;2.83;1.80;;;23.00;98.20;;;;;;5090280;28;20530;-67
2022/07/18 02:34:53;;;;;;;4.47;1.80;;;23.00;98.40;;;;;;5070048;28;20193;-67
2022/07/18 02:37:21;;;;;;;3.40;1.70;;;23.00;98.40;;;;;;5079709;28;20217;-67
2022/07/18 02:39:47;;;;;;;3.90;1.63;;;23.00;98.40;;;;;;5089549;28;20194;-68
2022/07/18 02:42:13;;;;;;;9.90;2.00;;;23.00;98.50;;;;;;5071142;28;20246;-68
2022/07/18 02:44:40;;;;;;;3.40;1.70;;;23.00;98.80;;;;;;5079124;28;20247;-67
2022/07/18 02:47:07;;;;;;;3.72;1.77;;;22.90;99.10;;;;;;5083006;28;20205;-68
2022/07/18 02:49:33;;;;;;;3.00;1.73;;;22.90;99.20;;;;;;5072515;28;20181;-67
2022/07/18 02:52:08;;;;;;;2.40;1.60;;;22.90;99.10;;;;;;5053316;28;20272;-69
2022/07/18 02:54:37;;;;;;;4.47;1.70;;;22.90;99.00;;;;;;5087317;28;20216;-68
2022/07/18 02:57:06;;;;;;;3.23;1.70;;;23.00;99.10;;;;;;5083142;28;20347;-68
2022/07/18 02:59:33;;;;;;;3.87;1.73;;;22.90;98.90;;;;;;5069663;28;20193;-69
2022/07/18 03:02:00;;;;;;;2.83;1.90;;;22.90;99.10;;;;;;5078490;28;20243;-69
2022/07/18 03:04:26;;;;;;;4.30;1.53;;;22.90;99.00;;;;;;5074493;28;20660;-67
2022/07/18 03:06:52;;;;;;;6.97;2.10;;;22.90;99.00;;;;;;5060310;28;20214;-68
2022/07/18 03:09:19;;;;;;;3.20;1.60;;;22.80;98.90;;;;;;5087269;28;20205;-68
2022/07/18 03:11:46;;;;;;;3.43;1.83;;;22.80;98.90;;;;;;5089009;28;20201;-67
2022/07/18 03:14:13;;;;;;;3.60;1.83;;;22.80;99.00;;;;;;5068641;28;20849;-67
2022/07/18 03:16:40;;;;;;;5.17;1.77;;;22.80;99.10;;;;;;5087853;28;20217;-67
2022/07/18 03:19:07;;;;;;;4.03;1.90;;;22.80;99.60;;;;;;5082845;28;20667;-67
2022/07/18 03:21:33;;;;;;;4.27;1.93;;;22.80;99.90;;;;;;5069366;28;20193;-67
2022/07/18 03:24:00;;;;;;;3.83;2.00;;;22.80;99.90;;;;;;5088639;28;20320;-67
2022/07/18 03:26:27;;;;;;;3.47;1.90;;;22.80;99.90;;;;;;5028996;28;1684881;-67
2022/07/18 03:28:53;;;;;;;4.10;1.63;;;22.90;99.90;;;;;;5089983;28;20217;-68
2022/07/18 03:31:20;;;;;;;6.87;2.20;;;22.90;99.90;;;;;;5071012;28;20260;-68
2022/07/18 03:33:46;;;;;;;3.03;1.63;;;22.90;99.90;;;;;;5089800;28;20296;-67
2022/07/18 03:36:14;;;;;;;4.13;1.70;;;22.90;99.90;;;;;;5072501;28;20285;-67
2022/07/18 03:38:44;;;;;;;3.60;1.83;;;22.90;99.90;;;;;;5089081;28;20313;-67
2022/07/18 03:41:11;;;;;;;3.27;1.70;;;22.90;99.90;;;;;;5074429;28;20608;-67
2022/07/18 03:43:40;;;;;;;3.50;1.90;;;22.90;99.90;;;;;;5068073;28;20191;-69
2022/07/18 03:46:07;;;;;;;2.73;1.83;;;22.90;99.90;;;;;;5068956;28;20271;-67
2022/07/18 03:48:34;;;;;;;3.70;1.80;;;22.90;99.90;;;;;;5071267;28;20201;-68
2022/07/18 03:51:01;;;;;;;6.20;1.80;;;23.00;99.90;;;;;;5069523;28;20272;-68
2022/07/18 03:53:27;;;;;;;4.47;1.50;;;23.00;99.90;;;;;;5089731;28;20880;-67
2022/07/18 03:55:54;;;;;;;4.47;2.10;;;23.00;99.90;;;;;;5081147;28;20186;-68
2022/07/18 03:58:20;;;;;;;5.80;1.80;;;23.00;99.90;;;;;;5088846;28;20201;-69
2022/07/18 04:00:48;;;;;;;6.00;2.30;;;23.00;99.90;;;;;;5084837;28;20622;-67
2022/07/18 04:03:16;;;;;;;4.47;1.93;;;23.10;99.90;;;;;;5067107;28;20280;-67
2022/07/18 04:05:42;;;;;;;10.03;2.60;;;23.10;99.90;;;;;;5081175;28;20641;-67
2022/07/18 04:08:08;;;;;;;6.67;2.07;;;23.10;99.90;;;;;;5089186;28;20194;-67
2022/07/18 04:10:35;;;;;;;4.13;2.20;;;23.10;99.90;;;;;;5068793;28;20639;-69
2022/07/18 04:13:01;;;;;;;4.60;2.17;;;23.10;99.90;;;;;;5071775;28;20188;-67
2022/07/18 04:15:27;;;;;;;4.37;2.03;;;23.20;99.90;;;;;;5089750;28;20610;-67
2022/07/18 04:17:54;;;;;;;5.33;2.00;;;23.20;99.90;;;;;;5087887;28;20618;-68
2022/07/18 04:20:21;;;;;;;4.40;2.00;;;23.20;99.90;;;;;;5071820;28;20214;-71
2022/07/18 04:22:57;;;;;;;4.83;1.97;;;23.20;99.90;;;;;;5088623;28;20196;-68
2022/07/18 04:25:28;;;;;;;4.90;2.10;;;23.30;99.90;;;;;;5088097;28;20545;-69
2022/07/18 04:27:57;;;;;;;6.43;2.10;;;23.40;99.90;;;;;;5070119;28;20775;-68
2022/07/18 04:30:26;;;;;;;4.77;2.00;;;23.50;99.90;;;;;;5051529;28;20200;-70
2022/07/18 04:32:54;;;;;;;4.05;1.90;;;23.60;99.90;;;;;;5074529;28;20698;-69
2022/07/18 04:35:24;;;;;;;4.90;2.10;;;23.60;99.90;;;;;;5088463;28;20305;-67
2022/07/18 04:37:51;;;;;;;6.07;2.10;;;23.70;99.90;;;;;;5078366;28;20194;-67
2022/07/18 04:40:18;;;;;;;6.87;1.93;;;23.80;99.90;;;;;;5060268;28;20595;-67
2022/07/18 04:42:45;;;;;;;4.83;1.80;;;23.80;99.90;;;;;;5074501;28;20189;-67
2022/07/18 04:45:12;;;;;;;6.85;1.88;;;23.90;99.90;;;;;;5070757;28;20654;-67
2022/07/18 04:47:39;;;;;;;3.35;1.92;;;23.90;99.90;;;;;;5070148;28;20217;-67
2022/07/18 04:50:06;;;;;;;4.50;2.30;;;24.00;99.90;;;;;;5088460;28;20190;-68
2022/07/18 04:52:45;;;;;;;5.97;2.13;;;24.10;99.90;;;;;;5064311;28;20193;-66
2022/07/18 04:55:15;;;;;;;7.97;2.03;;;24.20;99.90;;;;;;5065460;28;20895;-70
2022/07/18 04:57:42;;;;;;;5.78;2.00;;;24.30;99.90;;;;;;5084399;28;20868;-69
2022/07/18 05:00:16;;;;;;;5.93;2.10;;;24.40;99.90;;;;;;5086891;28;20198;-69
2022/07/18 05:02:46;;;;;;;5.20;2.17;;;24.40;99.90;;;;;;5074801;28;20247;-70
2022/07/18 05:05:16;;;;;;;7.95;2.30;;;24.50;99.90;;;;;;5065396;28;20281;-69
2022/07/18 05:07:45;;;;;;;3.67;1.80;;;24.50;99.90;;;;;;5075997;28;20215;-71
2022/07/18 05:10:14;;;;;;;3.97;1.98;;;24.50;99.90;;;;;;5051382;28;20191;-70
2022/07/18 05:12:43;;;;;;;5.88;2.05;;;24.60;99.90;;;;;;5067130;28;20271;-68
2022/07/18 05:15:14;;;;;;;5.88;1.95;;;24.70;99.90;;;;;;5085860;28;20415;-70
2022/07/18 05:17:42;;;;;;;5.18;2.05;;;24.80;99.90;;;;;;5069685;28;20220;-69
2022/07/18 05:20:16;;;;;;;5.25;2.30;;;24.90;99.90;;;;;;5069344;28;20182;-70
2022/07/18 05:22:43;;;;;;;5.63;2.10;;;25.00;99.90;;;;;;5086747;28;20185;-68
2022/07/18 05:25:11;;;;;;;5.03;1.83;;;25.00;99.90;;;;;;5066529;28;20190;-68
2022/07/18 05:27:38;;;;;;;3.58;1.92;;;25.10;99.90;;;;;;5076160;28;20216;-70
2022/07/18 05:30:10;;;;;;;4.60;2.08;;;25.10;99.90;;;;;;5090801;28;20185;-69
2022/07/18 05:32:37;;;;;;;3.38;1.90;;;25.10;99.90;;;;;;5083755;28;20198;-70
2022/07/18 05:35:04;;;;;;;7.57;2.45;;;25.20;99.90;;;;;;5061298;28;20259;-68
2022/07/18 05:37:35;;;;;;;5.80;2.08;;;25.30;99.90;;;;;;5087688;28;20686;-69
2022/07/18 05:40:04;;;;;;;4.22;2.05;;;25.30;99.90;;;;;;5066559;28;20193;-68
2022/07/18 05:42:31;;;;;;;4.68;2.25;;;25.40;99.90;;;;;;5084836;28;21026;-69
2022/07/18 05:44:58;;;;;;;3.67;1.70;;;25.40;99.90;;;;;;5066795;28;20189;-68
2022/07/18 05:47:25;;;;;;;5.10;2.38;;;25.50;99.90;;;;;;5065422;28;20210;-68
2022/07/18 05:49:51;;;;;;;6.30;2.30;;;25.60;99.90;;;;;;5066682;28;20719;-70
2022/07/18 05:52:17;;;;;;;4.20;1.85;;;25.60;99.90;;;;;;5067221;28;20174;-69
2022/07/18 05:54:43;;;;;;;7.50;2.08;;;25.60;99.90;;;;;;5051929;28;20188;-68
2022/07/18 05:57:10;;;;;;;2.63;1.70;;;25.70;99.90;;;;;;5087191;28;20186;-69
2022/07/18 05:59:36;;;;;;;3.03;1.52;;;25.80;99.90;;;;;;5068743;28;20226;-69
2022/07/18 06:02:02;;;;;;;5.90;2.10;;;25.90;99.90;;;;;;5074301;28;20197;-68
2022/07/18 06:04:29;;;;;;;7.60;2.20;;;25.90;99.90;;;;;;5084861;28;20202;-69
2022/07/18 06:06:55;;;;;;;3.28;1.77;;;26.00;99.90;;;;;;5065838;28;20678;-68
2022/07/18 06:09:21;;;;;;;4.47;1.90;;;26.10;99.90;;;;;;5086793;28;20213;-70
2022/07/18 06:11:48;;;;;;;9.32;1.85;;;26.10;99.90;;;;;;5090224;28;20194;-69
2022/07/18 06:14:15;;;;;;;5.22;1.90;;;26.20;99.90;;;;;;5091006;28;20178;-67
2022/07/18 06:16:41;;;;;;;3.10;1.83;;;26.30;99.90;;;;;;5089384;28;20214;-66
2022/07/18 06:19:08;;;;;;;3.60;2.20;;;26.40;99.90;;;;;;5089242;28;20335;-67
2022/07/18 06:21:35;;;;;;;7.20;2.10;;;26.40;99.90;;;;;;5053051;28;20197;-68
2022/07/18 06:24:01;;;;;;;4.63;2.05;;;26.50;99.90;;;;;;5069075;28;20175;-66
2022/07/18 06:26:27;;;;;;;7.10;2.22;;;26.60;99.90;;;;;;5061518;28;20833;-67
2022/07/18 06:28:53;;;;;;;5.78;2.08;;;26.70;99.90;;;;;;5068062;28;20273;-69
2022/07/18 06:31:21;;;;;;;4.65;2.17;;;26.90;99.90;;;;;;5085223;28;20918;-70
2022/07/18 06:33:47;;;;;;;7.43;2.17;;;27.00;99.90;;;;;;5045389;28;20186;-69
2022/07/18 06:36:14;;;;;;;5.63;2.30;;;27.10;99.90;;;;;;5084549;28;20341;-66
2022/07/18 06:38:40;;;;;;;6.65;2.05;;;27.10;99.90;;;;;;5086431;28;20634;-67
2022/07/18 06:41:08;;;;;;;3.88;2.03;;;27.10;99.90;;;;;;5067200;28;21792;-67
2022/07/18 06:43:36;;;;;;;12.07;2.10;;;27.30;99.90;;;;;;5090774;28;20186;-66
2022/07/18 06:46:03;;;;;;;4.15;2.10;;;27.40;99.90;;;;;;5087069;28;20657;-69
2022/07/18 06:48:33;;;;;;;8.60;2.20;;;27.50;99.90;;;;;;5083155;28;20213;-66
2022/07/18 06:51:03;;;;;;;7.15;2.03;;;27.70;99.90;;;;;;5046389;28;20202;-66
2022/07/18 06:53:29;;;;;;;7.03;2.22;;;27.80;99.90;;;;;;5088996;28;20670;-70
2022/07/18 06:56:02;;;;;;;8.93;2.05;;;28.00;99.90;;;;;;5082209;28;20292;-67
2022/07/18 06:58:40;;;;;;;6.03;2.25;;;28.10;99.90;;;;;;5055504;28;20178;-66
2022/07/18 07:01:06;;;;;;;4.38;2.00;;;28.20;99.90;;;;;;5062949;28;20220;-67
2022/07/18 07:03:34;;;;;;;8.23;2.15;;;28.30;99.90;;;;;;5085892;28;20174;-71
2022/07/18 07:06:00;;;;;;;11.68;2.08;;;28.30;99.90;;;;;;5087383;28;20673;-68
2022/07/18 07:08:26;;;;;;;9.32;2.33;;;28.50;99.90;;;;;;5071648;28;20190;-68
2022/07/18 07:10:52;;;;;;;5.57;2.40;;;28.60;99.90;;;;;;5088439;28;20209;-66
2022/07/18 07:13:19;;;;;;;14.18;2.20;;;28.70;99.90;;;;;;5084120;28;20687;-67
2022/07/18 07:15:49;;;;;;;4.63;2.17;;;28.90;99.90;;;;;;5090141;28;20186;-69
2022/07/18 07:18:15;;;;;;;7.03;1.98;;;29.00;99.90;;;;;;5073360;28;20279;-69
2022/07/18 07:20:42;;;;;;;8.77;2.10;;;29.10;99.90;;;;;;5050021;28;20211;-68
2022/07/18 07:23:09;;;;;;;6.22;2.45;;;29.20;99.90;;;;;;5070231;28;20178;-67
2022/07/18 07:25:37;;;;;;;8.68;2.15;;;29.20;99.90;;;;;;5069700;28;20191;-67
2022/07/18 07:28:05;;;;;;;8.40;2.35;;;29.30;99.90;;;;;;5074896;28;20318;-69
2022/07/18 07:30:34;;;;;;;4.75;2.30;;;29.40;99.90;;;;;;5085078;28;20682;-67
2022/07/18 07:33:04;;;;;;;4.22;2.10;;;29.60;99.90;;;;;;5046042;28;20224;-66
2022/07/18 07:35:30;;;;;;;6.07;2.22;;;29.70;99.80;;;;;;5084730;28;20182;-67
2022/07/18 07:37:59;;;;;;;8.88;2.20;;;29.90;99.60;;;;;;5066464;28;20217;-64
2022/07/18 07:40:29;;;;;;;6.03;2.50;;;29.90;98.20;;;;;;5081448;28;20194;-64
2022/07/18 07:43:15;;;;;;;2.05;1.75;;;30.00;98.80;;;;;;5082586;28;20214;-64
2022/07/18 07:45:46;;;;;;;4.07;1.92;;;30.10;98.70;;;;;;5084612;28;20194;-66
2022/07/18 07:48:12;;;;;;;7.65;2.10;;;30.10;99.20;;;;;;5077265;28;20194;-68
2022/07/18 07:50:39;;;;;;;13.27;2.30;;;30.20;96.70;;;;;;5066790;28;20201;-65
2022/07/18 07:53:05;;;;;;;2.15;1.50;;;30.30;97.30;;;;;;5072298;28;20194;-65
2022/07/18 07:55:31;;;;;;;7.13;1.85;;;30.40;96.80;;;;;;5053239;28;20193;-64
2022/07/18 07:57:58;;;;;;;5.20;2.03;;;30.60;95.10;;;;;;5085317;28;20182;-65
2022/07/18 08:00:27;;;;;;;4.60;1.98;;;30.70;94.70;;;;;;5066644;28;20190;-64
2022/07/18 08:02:59;;;;;;;7.32;1.88;;;30.70;94.10;;;;;;5067548;28;20224;-67
2022/07/18 08:05:28;;;;;;;7.13;1.80;;;30.90;94.00;;;;;;5087947;28;20588;-65
2022/07/18 08:07:56;;;;;;;12.25;2.00;;;31.00;92.50;;;;;;5075886;28;20563;-66
2022/07/18 08:11:09;;;;;;;7.10;2.03;;;31.20;92.90;;;;;;5088531;28;20190;-65
2022/07/18 08:13:39;;;;;;;5.40;2.00;;;31.30;92.50;;;;;;5084959;28;20376;-65
2022/07/18 08:16:05;;;;;;;7.15;1.70;;;31.40;92.70;;;;;;5083677;28;20584;-67
2022/07/18 08:18:31;;;;;;;7.53;2.25;;;31.50;92.40;;;;;;5063470;28;20206;-69
2022/07/18 08:20:59;;;;;;;8.35;2.13;;;31.60;92.40;;;;;;5084908;28;20190;-63
2022/07/18 08:23:26;;;;;;;5.47;1.80;;;31.80;91.70;;;;;;5086314;28;20247;-63
2022/07/18 08:25:53;;;;;;;9.77;1.80;;;31.90;91.20;;;;;;5082186;28;20186;-64
2022/07/18 08:28:20;;;;;;;3.67;2.00;;;31.90;90.60;;;;;;5063317;28;20183;-67
2022/07/18 08:30:46;;;;;;;5.78;2.10;;;32.00;90.70;;;;;;5084251;28;20344;-64
2022/07/18 08:33:12;;;;;;;7.78;2.20;;;32.10;90.00;;;;;;5086968;28;20190;-66
2022/07/18 08:35:39;;;;;;;7.35;2.10;;;32.20;88.90;;;;;;5067295;28;20194;-62
2022/07/18 08:38:05;;;;;;;5.22;1.98;;;32.30;89.60;;;;;;5078200;28;20829;-64
2022/07/18 08:40:32;;;;;;;7.38;2.13;;;32.50;88.00;;;;;;5067190;28;20558;-66
2022/07/18 08:42:59;;;;;;;5.28;1.92;;;32.60;88.20;;;;;;5084219;28;20217;-63
2022/07/18 08:45:26;;;;;;;6.47;2.35;;;32.80;88.10;;;;;;5086623;28;20197;-64
2022/07/18 08:47:53;;;;;;;7.63;2.30;;;32.80;87.70;;;;;;5069145;28;20212;-65
2022/07/18 08:50:20;;;;;;;4.90;2.10;;;32.80;86.20;;;;;;5085780;28;20182;-63
2022/07/18 08:52:46;;;;;;;7.35;2.13;;;32.90;88.70;;;;;;5084028;28;20208;-65
2022/07/18 08:55:14;;;;;;;6.47;2.22;;;33.00;86.30;;;;;;5081551;28;20186;-64
2022/07/18 08:57:40;;;;;;;8.50;2.13;;;33.20;89.60;;;;;;5084337;28;20281;-63
2022/07/18 09:00:10;;;;;;;12.55;2.05;;;33.20;85.80;;;;;;5083035;28;21207;-63
2022/07/18 09:02:36;;;;;;;11.73;2.20;;;33.30;84.60;;;;;;5083061;28;20808;-64
2022/07/18 09:05:05;;;;;;;6.35;1.90;;;33.40;83.70;;;;;;5093567;28;20235;-64
2022/07/18 09:07:37;;;;;;;8.98;2.00;;;33.60;83.30;;;;;;5069838;28;20213;-64
2022/07/18 09:10:05;;;;;;;7.78;2.33;;;33.70;82.90;;;;;;5067905;28;20182;-62
2022/07/18 09:12:32;;;;;;;11.10;2.42;;;33.80;81.80;;;;;;5077421;28;20209;-63
2022/07/18 09:15:10;;;;;;;11.40;2.30;;;33.90;81.70;;;;;;5084579;28;21029;-63
2022/07/18 09:17:37;;;;;;;7.90;2.03;;;34.00;81.80;;;;;;5083735;28;20221;-65
2022/07/18 09:20:11;;;;;;;3.92;1.70;;;34.10;82.00;;;;;;5084007;28;20190;-63
2022/07/18 09:22:44;;;;;;;6.47;1.90;;;34.10;81.90;;;;;;5087164;28;20190;-63
2022/07/18 09:25:19;;;;;;;6.65;2.38;;;34.10;82.00;;;;;;5066785;28;20204;-68
2022/07/18 09:27:52;;;;;;;11.80;2.15;;;34.10;81.00;;;;;;5059575;28;20221;-66
2022/07/18 09:30:34;;;;;;;4.45;1.92;;;34.20;81.30;;;;;;5068258;28;20577;-64
2022/07/18 09:33:03;;;;;;;6.85;1.98;;;34.20;82.10;;;;;;5083506;28;20201;-64
2022/07/18 09:35:53;;;;;;;10.40;2.10;;;34.40;81.20;;;;;;5072752;28;20198;-65
2022/07/18 09:38:29;;;;;;;11.45;2.20;;;34.50;83.50;;;;;;5073889;28;20697;-65
2022/07/18 09:40:57;;;;;;;5.90;1.80;;;34.60;82.60;;;;;;5086829;28;20231;-65
2022/07/18 09:43:25;;;;;;;12.30;2.05;;;34.70;82.40;;;;;;5076228;28;20190;-64
2022/07/18 09:45:55;;;;;;;8.77;2.17;;;34.70;81.60;;;;;;5084884;28;20182;-65
2022/07/18 09:48:25;;;;;;;6.25;2.30;;;34.70;80.90;;;;;;5089188;28;20182;-65
2022/07/18 09:51:03;;;;;;;5.55;2.08;;;34.90;79.70;;;;;;5070569;28;20701;-66
2022/07/18 09:53:42;;;;;;;4.43;2.00;;;35.00;79.60;;;;;;5070179;28;20645;-65
2022/07/18 09:56:11;;;;;;;10.70;1.90;;;35.10;81.10;;;;;;5068285;28;20214;-66
2022/07/18 09:58:57;;;;;;;10.02;2.33;;;35.10;79.50;;;;;;5087459;28;20208;-64
2022/07/18 10:01:25;;;;;;;8.82;2.00;;;35.10;81.00;;;;;;5072830;28;20213;-64
2022/07/18 10:03:52;;;;;;;7.13;1.77;;;35.00;81.00;;;;;;5090582;28;20613;-63
2022/07/18 10:06:19;;;;;;;9.85;2.00;;;34.90;80.60;;;;;;5070695;28;20207;-64
2022/07/18 10:08:46;;;;;;;8.65;2.28;;;35.10;81.10;;;;;;5067519;28;20226;-65
2022/07/18 10:11:13;;;;;;;8.00;2.50;;;35.20;81.00;;;;;;5066285;28;20355;-65
2022/07/18 10:13:39;;;;;;;9.15;1.83;;;35.30;80.60;;;;;;5071898;28;20186;-63
2022/07/18 10:16:07;;;;;;;10.32;2.50;;;35.30;79.60;;;;;;5066318;28;20297;-63
2022/07/18 10:18:38;;;;;;;7.15;1.85;;;35.30;77.60;;;;;;5076418;28;20231;-64
2022/07/18 10:21:15;;;;;;;7.93;2.40;;;35.20;79.60;;;;;;5087209;28;20189;-64
2022/07/18 10:23:48;;;;;;;7.88;2.03;;;35.40;79.80;;;;;;5079492;28;20182;-63
2022/07/18 10:26:25;;;;;;;7.18;2.00;;;35.50;79.20;;;;;;5089396;28;20221;-63
2022/07/18 10:28:59;;;;;;;17.98;2.40;;;35.40;79.80;;;;;;5071210;28;20316;-66
2022/07/18 10:31:26;;;;;;;4.53;2.00;;;35.40;79.40;;;;;;5089733;28;20186;-64
2022/07/18 10:34:12;;;;;;;15.75;2.53;;;35.30;79.80;;;;;;5088299;28;20182;-64
2022/07/18 10:37:06;;;;;;;5.47;2.03;;;35.20;78.90;;;;;;5089678;28;20228;-65
2022/07/18 10:39:36;;;;;;;6.05;2.28;;;35.20;79.60;;;;;;5088212;28;20194;-63
2022/07/18 10:42:09;;;;;;;7.47;2.05;;;35.30;79.90;;;;;;5085874;28;20477;-62
2022/07/18 10:44:36;;;;;;;7.65;2.20;;;35.20;77.10;;;;;;5086341;28;20284;-64
2022/07/18 10:47:20;;;;;;;7.57;1.90;;;35.10;78.20;;;;;;5088724;28;20931;-63
2022/07/18 10:49:47;;;;;;;6.93;1.90;;;35.10;80.50;;;;;;5042416;28;20544;-62
2022/07/18 10:52:29;;;;;;;7.50;2.17;;;35.00;80.10;;;;;;5045488;28;20285;-64
2022/07/18 10:55:08;;;;;;;12.27;2.00;;;35.00;79.00;;;;;;5081096;28;20243;-64
2022/07/18 10:57:43;;;;;;;6.97;1.92;;;35.00;77.90;;;;;;5083430;28;20324;-65
2022/07/18 11:00:24;;;;;;;5.68;2.33;;;34.90;79.30;;;;;;5078988;28;20269;-66
2022/07/18 11:03:25;;;;;;;8.27;2.13;;;34.90;80.60;;;;;;5086547;28;20186;-66
2022/07/18 11:05:55;;;;;;;8.05;2.00;;;34.80;80.80;;;;;;5084817;28;20212;-64
2022/07/18 11:08:24;;;;;;;5.53;1.83;;;34.80;78.60;;;;;;5067043;28;20655;-65
2022/07/18 11:10:53;;;;;;;7.40;2.35;;;34.60;79.40;;;;;;5082781;28;20186;-65
2022/07/18 11:13:25;;;;;;;7.20;1.80;;;34.60;77.90;;;;;;5081666;28;20194;-67
2022/07/18 11:16:17;;;;;;;6.80;1.88;;;34.60;77.10;;;;;;5049887;28;20549;-64
2022/07/18 11:18:44;;;;;;;4.75;1.73;;;34.70;78.20;;;;;;5063812;28;20182;-64
2022/07/18 11:21:34;;;;;;;3.90;2.05;;;34.70;76.90;;;;;;5064784;28;20185;-64
2022/07/18 11:24:10;;;;;;;4.82;1.77;;;34.70;78.40;;;;;;5056274;28;20191;-66
2022/07/18 11:26:44;;;;;;;5.72;2.10;;;34.70;79.60;;;;;;5070546;28;20276;-64
2022/07/18 11:29:20;;;;;;;8.75;2.00;;;34.70;80.70;;;;;;5088576;28;20192;-63
2022/07/18 11:31:56;;;;;;;7.82;2.30;;;34.50;78.10;;;;;;5068393;28;20194;-63
2022/07/18 11:34:24;;;;;;;7.55;1.85;;;34.50;77.40;;;;;;5073674;28;20181;-66
2022/07/18 11:36:51;;;;;;;9.35;2.05;;;34.40;74.70;;;;;;5086842;28;20210;-63
2022/07/18 11:39:34;;;;;;;8.10;2.13;;;34.40;77.10;;;;;;5068200;28;20274;-63
2022/07/18 11:42:02;;;;;;;8.30;1.85;;;34.40;77.80;;;;;;5088866;28;20740;-62
2022/07/18 11:44:28;;;;;;;7.32;2.00;;;34.50;77.70;;;;;;5075957;28;20194;-63
2022/07/18 11:47:08;;;;;;;2.92;1.90;;;34.60;78.00;;;;;;5080112;28;20202;-66
2022/07/18 11:49:36;;;;;;;5.80;1.75;;;34.50;77.10;;;;;;5083694;28;20239;-67
2022/07/18 11:52:06;;;;;;;7.45;1.95;;;34.50;77.60;;;;;;5083363;28;20261;-63
2022/07/18 11:54:34;;;;;;;4.65;1.70;;;34.60;74.20;;;;;;5042959;28;20938;-63
2022/07/18 11:57:01;;;;;;;7.35;1.83;;;34.70;76.20;;;;;;5080742;28;20182;-63
2022/07/18 11:59:44;;;;;;;6.60;2.00;;;34.50;75.20;;;;;;5076916;28;20224;-63
2022/07/18 12:02:11;;;;;;;8.02;1.77;;;34.60;73.10;;;;;;5084614;28;20196;-64
2022/07/18 12:04:39;;;;;;;7.47;2.03;;;34.50;74.40;;;;;;5065671;28;20198;-63
2022/07/18 12:07:25;;;;;;;5.68;2.15;;;34.70;71.90;;;;;;5079316;28;20762;-64
2022/07/18 12:09:53;;;;;;;4.70;1.80;;;34.60;72.20;;;;;;5078331;28;20189;-63
2022/07/18 12:12:23;;;;;;;8.27;1.70;;;34.60;70.00;;;;;;5083858;28;20235;-63
2022/07/18 12:15:15;;;;;;;5.15;1.75;;;34.50;70.30;;;;;;5088846;28;20179;-65
2022/07/18 12:17:52;;;;;;;5.07;1.70;;;34.50;70.40;;;;;;5082100;28;20220;-63
2022/07/18 12:20:22;;;;;;;10.25;2.15;;;34.40;71.70;;;;;;5088285;28;20178;-65
2022/07/18 12:23:12;;;;;;;4.95;1.80;;;34.40;71.40;;;;;;5070623;28;20359;-64
2022/07/18 12:25:43;;;;;;;7.13;1.80;;;34.60;69.60;;;;;;5084802;28;20186;-63
2022/07/18 12:28:19;;;;;;;6.78;2.03;;;34.40;70.40;;;;;;5083928;28;20226;-63
2022/07/18 12:30:46;;;;;;;5.43;1.92;;;34.40;71.30;;;;;;5072724;28;20186;-66
2022/07/18 12:33:13;;;;;;;3.28;1.73;;;34.30;70.60;;;;;;5070578;28;20222;-63
2022/07/18 12:35:40;;;;;;;7.97;1.75;;;34.20;71.40;;;;;;5078470;28;20649;-63
2022/07/18 12:38:16;;;;;;;6.75;1.50;;;34.40;70.50;;;;;;5073743;28;20433;-62
2022/07/18 12:40:58;;;;;;;3.30;1.48;;;34.40;69.00;;;;;;5085158;28;20223;-63
2022/07/18 12:43:33;;;;;;;2.88;1.83;;;34.30;69.70;;;;;;5087054;28;20201;-63
2022/07/18 12:46:07;;;;;;;5.32;1.80;;;34.50;72.40;;;;;;5087161;28;20269;-65
2022/07/18 12:48:35;;;;;;;8.20;2.10;;;34.50;71.80;;;;;;5086294;28;20178;-65
2022/07/18 12:51:07;;;;;;;7.10;1.98;;;34.40;73.40;;;;;;5069574;28;20182;-65
2022/07/18 12:53:40;;;;;;;9.65;1.95;;;34.30;71.40;;;;;;5076280;28;20191;-65
2022/07/18 12:56:07;;;;;;;7.10;1.95;;;34.30;70.80;;;;;;5078065;28;20206;-65